createdAt,value
2019-04-07T00:00:27.762Z,74.90
2019-04-07T00:02:56.847Z,74.80
2019-04-07T00:05:25.645Z,74.80
2019-04-07T00:07:56.070Z,74.70
2019-04-07T00:10:25.951Z,74.50
2019-04-07T00:12:54.795Z,74.50
2019-04-07T00:15:23.478Z,74.40
2019-04-07T00:17:52.043Z,74.20
2019-04-07T00:20:20.862Z,74.10
2019-04-07T00:22:49.919Z,73.90
2019-04-07T00:25:19.287Z,73.90
2019-04-07T00:27:47.793Z,74.00
2019-04-07T00:30:16.900Z,73.90
2019-04-07T00:32:46.653Z,73.90
2019-04-07T00:35:23.411Z,73.90
2019-04-07T00:37:46.096Z,74.00
2019-04-07T00:40:15.493Z,74.10
2019-04-07T00:42:44.407Z,74.20
2019-04-07T00:45:14.095Z,74.30
2019-04-07T00:47:43.021Z,74.20
2019-04-07T00:50:12.098Z,74.30
2019-04-07T00:52:40.775Z,74.30
2019-04-07T00:55:09.924Z,74.30
2019-04-07T00:57:38.474Z,74.30
2019-04-07T01:00:10.593Z,74.60
2019-04-07T01:02:39.841Z,74.70
2019-04-07T01:05:08.613Z,74.80
2019-04-07T01:07:37.131Z,74.80
2019-04-07T01:10:07.219Z,74.90
2019-04-07T01:12:35.841Z,75.00
2019-04-07T01:15:07.740Z,74.90
2019-04-07T01:17:37.003Z,74.90
2019-04-07T01:20:08.882Z,74.90
2019-04-07T01:22:37.441Z,75.10
2019-04-07T01:25:07.142Z,75.20
2019-04-07T01:27:35.832Z,75.20
2019-04-07T01:30:06.262Z,75.30
2019-04-07T01:32:35.601Z,75.20
2019-04-07T01:35:04.996Z,75.20
2019-04-07T01:37:34.060Z,75.30
2019-04-07T01:40:03.133Z,75.30
2019-04-07T01:42:49.971Z,75.20
2019-04-07T01:45:23.698Z,75.20
2019-04-07T01:48:10.312Z,75.40
2019-04-07T01:50:55.185Z,75.30
2019-04-07T01:53:28.246Z,75.40
2019-04-07T01:56:01.816Z,75.60
2019-04-07T01:58:35.428Z,75.60
2019-04-07T02:01:18.324Z,75.70
2019-04-07T02:03:49.528Z,75.70
2019-04-07T02:06:25.705Z,75.60
2019-04-07T02:08:58.865Z,75.50
2019-04-07T02:11:32.573Z,75.50
2019-04-07T02:14:21.286Z,75.50
2019-04-07T02:16:51.561Z,75.60
2019-04-07T02:19:30.768Z,75.70
2019-04-07T02:22:04.640Z,75.60
2019-04-07T02:24:34.737Z,75.50
2019-04-07T02:27:21.917Z,75.30
2019-04-07T02:30:07.837Z,75.30
2019-04-07T02:32:47.074Z,75.60
2019-04-07T02:35:17.144Z,75.70
2019-04-07T02:37:48.161Z,75.80
2019-04-07T02:40:28.447Z,76.00
2019-04-07T02:43:05.233Z,75.90
2019-04-07T02:45:50.751Z,76.10
2019-04-07T02:48:39.522Z,76.20
2019-04-07T02:51:11.478Z,76.30
2019-04-07T02:53:41.540Z,76.40
2019-04-07T02:56:11.845Z,76.50
2019-04-07T02:58:59.399Z,76.60
2019-04-07T03:01:33.014Z,76.60
2019-04-07T03:04:20.446Z,76.70
2019-04-07T03:07:00.563Z,76.90
2019-04-07T03:09:36.755Z,77.00
2019-04-07T03:12:10.395Z,77.10
2019-04-07T03:14:41.291Z,77.00
2019-04-07T03:17:14.025Z,76.90
2019-04-07T03:19:56.225Z,76.80
2019-04-07T03:22:43.761Z,76.70
2019-04-07T03:25:15.619Z,76.60
2019-04-07T03:27:52.715Z,76.40
2019-04-07T03:30:29.968Z,76.40
2019-04-07T03:33:02.800Z,76.40
2019-04-07T03:35:53.150Z,76.40
2019-04-07T03:38:22.579Z,76.40
2019-04-07T03:40:52.637Z,75.90
2019-04-07T03:43:23.761Z,75.60
2019-04-07T03:45:55.001Z,75.30
2019-04-07T03:48:37.999Z,75.30
2019-04-07T03:51:20.394Z,75.30
2019-04-07T03:53:54.070Z,75.20
2019-04-07T03:56:25.405Z,75.20
2019-04-07T03:59:01.100Z,75.40
2019-04-07T04:01:35.421Z,75.40
2019-04-07T04:04:07.714Z,75.50
2019-04-07T04:06:47.021Z,75.70
2019-04-07T04:09:17.603Z,75.90
2019-04-07T04:11:47.827Z,76.10
2019-04-07T04:14:26.783Z,76.30
2019-04-07T04:16:56.176Z,76.30
2019-04-07T04:19:26.156Z,76.40
2019-04-07T04:21:55.621Z,76.40
2019-04-07T04:24:24.073Z,76.40
2019-04-07T04:26:53.641Z,76.40
2019-04-07T04:29:23.369Z,76.30
2019-04-07T04:31:53.075Z,76.20
2019-04-07T04:34:21.502Z,76.00
2019-04-07T04:36:50.272Z,75.90
2019-04-07T04:39:20.961Z,75.60
2019-04-07T04:41:49.255Z,75.20
2019-04-07T04:44:18.642Z,75.20
2019-04-07T04:46:48.559Z,74.50
2019-04-07T04:49:17.138Z,74.50
2019-04-07T04:51:45.862Z,74.30
2019-04-07T04:54:14.523Z,74.40
2019-04-07T04:56:44.892Z,74.40
2019-04-07T04:59:13.658Z,74.60
2019-04-07T05:01:42.270Z,74.70
2019-04-07T05:04:11.490Z,74.70
2019-04-07T05:06:41.300Z,74.90
2019-04-07T05:09:09.873Z,75.00
2019-04-07T05:11:38.654Z,75.10
2019-04-07T05:14:07.179Z,75.20
2019-04-07T05:16:35.662Z,75.20
2019-04-07T05:19:04.482Z,75.10
2019-04-07T05:21:33.918Z,75.10
2019-04-07T05:24:02.818Z,75.30
2019-04-07T05:26:31.254Z,75.30
2019-04-07T05:29:00.430Z,75.40
2019-04-07T05:31:30.462Z,75.30
2019-04-07T05:34:00.270Z,75.40
2019-04-07T05:36:28.884Z,75.30
2019-04-07T05:38:57.483Z,75.30
2019-04-07T05:41:26.310Z,75.40
2019-04-07T05:43:55.662Z,75.40
2019-04-07T05:46:24.997Z,75.50
2019-04-07T05:48:53.558Z,75.70
2019-04-07T05:51:22.886Z,75.80
2019-04-07T05:53:52.656Z,76.00
2019-04-07T05:56:25.973Z,76.20
2019-04-07T05:58:52.746Z,76.20
2019-04-07T06:01:23.677Z,76.20
2019-04-07T06:03:52.235Z,76.00
2019-04-07T06:06:21.522Z,75.60
2019-04-07T06:08:50.641Z,75.20
2019-04-07T06:11:19.511Z,74.60
2019-04-07T06:13:48.723Z,74.70
2019-04-07T06:16:19.951Z,74.60
2019-04-07T06:18:48.223Z,74.60
2019-04-07T06:21:17.356Z,74.30
2019-04-07T06:23:46.117Z,74.20
2019-04-07T06:26:15.088Z,74.00
2019-04-07T06:28:46.680Z,73.80
2019-04-07T06:31:14.146Z,73.10
2019-04-07T06:33:42.992Z,72.50
2019-04-07T06:36:11.606Z,72.00
2019-04-07T06:38:43.634Z,71.80
2019-04-07T06:41:11.437Z,71.50
2019-04-07T06:43:40.429Z,70.50
2019-04-07T06:46:24.625Z,70.10
2019-04-07T06:48:55.121Z,69.90
2019-04-07T06:51:29.186Z,69.80
2019-04-07T06:54:18.547Z,68.70
2019-04-07T06:57:04.345Z,68.10
2019-04-07T06:59:33.991Z,67.70
2019-04-07T07:02:12.086Z,67.10
2019-04-07T07:04:48.619Z,66.80
2019-04-07T07:07:25.326Z,66.10
2019-04-07T07:10:06.328Z,66.30
2019-04-07T07:12:39.133Z,65.70
2019-04-07T07:15:09.138Z,65.60
2019-04-07T07:17:52.668Z,65.60
2019-04-07T07:20:32.789Z,64.80
2019-04-07T07:23:05.958Z,64.80
2019-04-07T07:25:34.910Z,64.20
2019-04-07T07:28:04.331Z,63.70
2019-04-07T07:30:32.955Z,63.20
2019-04-07T07:33:01.954Z,63.10
2019-04-07T07:35:30.505Z,63.30
2019-04-07T07:37:59.757Z,62.80
2019-04-07T07:40:28.656Z,62.60
2019-04-07T07:42:59.137Z,62.40
2019-04-07T07:45:28.338Z,62.50
2019-04-07T07:47:56.769Z,63.30
2019-04-07T07:50:26.608Z,63.70
2019-04-07T07:52:56.079Z,62.30
2019-04-07T07:55:25.283Z,62.00
2019-04-07T07:57:56.461Z,61.50
2019-04-07T08:00:26.571Z,61.60
2019-04-07T08:02:55.831Z,61.90
2019-04-07T08:05:29.905Z,61.40
2019-04-07T08:07:56.145Z,60.80
2019-04-07T08:10:26.639Z,60.90
2019-04-07T08:12:56.308Z,60.40
2019-04-07T08:15:29.678Z,59.80
2019-04-07T08:17:55.192Z,58.60
2019-04-07T08:20:24.227Z,59.10
2019-04-07T08:22:53.063Z,59.10
2019-04-07T08:25:23.687Z,58.50
2019-04-07T08:27:51.691Z,58.60
2019-04-07T08:30:20.262Z,58.40
2019-04-07T08:32:48.841Z,57.90
2019-04-07T08:35:17.663Z,57.80
2019-04-07T08:37:48.161Z,57.80
2019-04-07T08:40:16.694Z,57.00
2019-04-07T08:42:48.269Z,57.00
2019-04-07T08:45:15.587Z,57.00
2019-04-07T08:47:47.340Z,56.60
2019-04-07T08:50:15.175Z,56.60
2019-04-07T08:52:43.917Z,56.40
2019-04-07T08:55:12.904Z,56.40
2019-04-07T08:57:42.319Z,56.50
2019-04-07T09:00:14.936Z,56.40
2019-04-07T09:02:43.814Z,55.90
2019-04-07T09:05:12.952Z,55.40
2019-04-07T09:07:42.610Z,55.20
2019-04-07T09:10:17.043Z,54.90
2019-04-07T09:12:44.069Z,54.40
2019-04-07T09:15:14.288Z,53.80
2019-04-07T09:17:48.713Z,53.10
2019-04-07T09:20:20.023Z,52.70
2019-04-07T09:22:59.374Z,52.30
2019-04-07T09:25:31.837Z,52.20
2019-04-07T09:28:04.126Z,51.80
2019-04-07T09:30:40.044Z,50.70
2019-04-07T09:33:11.449Z,50.20
2019-04-07T09:35:44.328Z,49.40
2019-04-07T09:38:15.299Z,48.50
2019-04-07T09:41:01.671Z,47.90
2019-04-07T09:43:49.427Z,47.20
2019-04-07T09:46:33.250Z,46.00
2019-04-07T09:49:05.956Z,44.30
2019-04-07T09:51:41.344Z,43.10
2019-04-07T09:54:11.108Z,43.30
2019-04-07T09:56:45.048Z,42.40
2019-04-07T09:59:30.696Z,41.00
2019-04-07T10:02:14.545Z,40.70
2019-04-07T10:04:45.151Z,39.70
2019-04-07T10:07:34.861Z,38.80
2019-04-07T10:10:14.364Z,38.70
2019-04-07T10:12:43.570Z,38.80
2019-04-07T10:15:16.652Z,38.20
2019-04-07T10:17:47.088Z,38.90
2019-04-07T10:20:32.601Z,38.30
2019-04-07T10:23:03.048Z,38.00
2019-04-07T10:25:33.432Z,37.30
2019-04-07T10:28:19.904Z,37.10
2019-04-07T10:30:50.019Z,36.70
2019-04-07T10:33:23.745Z,36.90
2019-04-07T10:36:12.050Z,36.40
2019-04-07T10:38:58.664Z,37.20
2019-04-07T10:41:45.389Z,36.70
2019-04-07T10:44:19.374Z,36.90
2019-04-07T10:46:50.429Z,36.10
2019-04-07T10:49:21.369Z,37.00
2019-04-07T10:51:52.276Z,37.20
2019-04-07T10:54:38.198Z,36.50
2019-04-07T10:57:18.818Z,36.00
2019-04-07T11:00:05.802Z,36.00
2019-04-07T11:02:54.867Z,35.90
2019-04-07T11:05:37.070Z,36.40
2019-04-07T11:08:10.529Z,38.10
2019-04-07T11:10:44.199Z,38.40
2019-04-07T11:13:18.503Z,38.10
2019-04-07T11:15:49.785Z,37.40
2019-04-07T11:18:23.054Z,37.40
2019-04-07T11:20:54.443Z,39.00
2019-04-07T11:23:31.992Z,38.60
2019-04-07T11:26:02.644Z,38.80
2019-04-07T11:28:33.790Z,38.50
2019-04-07T11:31:04.323Z,37.60
2019-04-07T11:33:35.072Z,37.40
2019-04-07T11:36:24.487Z,37.60
2019-04-07T11:38:55.928Z,37.90
2019-04-07T11:41:28.873Z,39.00
2019-04-07T11:44:00.681Z,39.40
2019-04-07T11:46:30.805Z,39.00
2019-04-07T11:49:02.684Z,38.50
2019-04-07T11:51:42.463Z,39.10
2019-04-07T11:54:14.278Z,39.70
2019-04-07T11:56:47.698Z,39.30
2019-04-07T11:59:23.822Z,39.70
2019-04-07T12:02:04.570Z,39.10
2019-04-07T12:04:51.761Z,40.30
2019-04-07T12:07:25.336Z,39.60
2019-04-07T12:09:56.317Z,39.90
2019-04-07T12:12:27.118Z,39.90
2019-04-07T12:14:57.808Z,40.20
2019-04-07T12:17:28.753Z,38.50
2019-04-07T12:19:59.175Z,38.70
2019-04-07T12:22:47.994Z,38.20
2019-04-07T12:25:17.737Z,37.90
2019-04-07T12:28:05.396Z,38.60
2019-04-07T12:30:51.274Z,38.30
2019-04-07T12:33:23.203Z,38.20
2019-04-07T12:36:00.869Z,37.40
2019-04-07T12:38:43.257Z,37.40
2019-04-07T12:41:19.099Z,37.80
2019-04-07T12:44:01.651Z,36.70
2019-04-07T12:46:34.974Z,36.10
2019-04-07T12:49:07.750Z,35.20
2019-04-07T12:51:37.492Z,35.10
2019-04-07T12:54:12.210Z,35.40
2019-04-07T12:56:52.391Z,36.10
2019-04-07T12:59:39.224Z,36.20
2019-04-07T13:02:10.126Z,36.00
2019-04-07T13:04:41.789Z,35.10
2019-04-07T13:07:17.076Z,34.60
2019-04-07T13:09:56.318Z,35.20
2019-04-07T13:12:30.466Z,34.40
2019-04-07T13:15:19.467Z,36.50
2019-04-07T13:18:08.560Z,36.30
2019-04-07T13:20:40.772Z,34.90
2019-04-07T13:23:12.384Z,34.80
2019-04-07T13:25:43.543Z,35.20
2019-04-07T13:28:15.246Z,35.40
2019-04-07T13:30:59.053Z,34.90
2019-04-07T13:33:39.471Z,34.50
2019-04-07T13:36:10.640Z,34.50
2019-04-07T13:38:44.916Z,34.10
2019-04-07T13:41:20.382Z,34.90
2019-04-07T13:44:07.113Z,34.50
2019-04-07T13:46:37.957Z,34.60
2019-04-07T13:49:18.095Z,34.20
2019-04-07T13:51:49.341Z,34.50
2019-04-07T13:54:25.296Z,34.70
2019-04-07T13:56:56.414Z,35.20
2019-04-07T13:59:45.269Z,35.30
2019-04-07T14:02:17.433Z,34.80
2019-04-07T14:04:48.903Z,34.90
2019-04-07T14:07:27.411Z,35.00
2019-04-07T14:10:03.077Z,34.20
2019-04-07T14:12:34.510Z,33.70
2019-04-07T14:15:09.210Z,33.90
2019-04-07T14:17:50.368Z,33.50
2019-04-07T14:20:37.527Z,33.00
2019-04-07T14:23:24.173Z,32.90
2019-04-07T14:26:08.011Z,32.00
2019-04-07T14:28:40.124Z,32.00
2019-04-07T14:31:20.768Z,32.10
2019-04-07T14:33:58.861Z,31.70
2019-04-07T14:36:32.807Z,32.40
2019-04-07T14:39:12.907Z,32.30
2019-04-07T14:41:43.809Z,32.00
2019-04-07T14:44:18.268Z,32.80
2019-04-07T14:46:50.105Z,33.90
2019-04-07T14:49:22.807Z,33.80
2019-04-07T14:52:03.713Z,34.00
2019-04-07T14:54:40.839Z,33.20
2019-04-07T14:57:12.717Z,33.00
2019-04-07T14:59:56.169Z,33.10
2019-04-07T15:02:25.518Z,33.70
2019-04-07T15:05:04.106Z,33.60
2019-04-07T15:07:47.188Z,33.20
2019-04-07T15:10:20.142Z,32.90
2019-04-07T15:12:51.289Z,32.80
2019-04-07T15:15:21.459Z,32.80
2019-04-07T15:17:51.210Z,33.40
2019-04-07T15:20:20.418Z,33.80
2019-04-07T15:22:49.879Z,33.50
2019-04-07T15:25:19.493Z,33.30
2019-04-07T15:27:48.975Z,34.00
2019-04-07T15:30:20.187Z,33.80
2019-04-07T15:32:50.386Z,33.60
2019-04-07T15:35:20.100Z,33.40
2019-04-07T15:37:51.562Z,33.30
2019-04-07T15:40:21.419Z,33.20
2019-04-07T15:42:51.223Z,33.30
2019-04-07T15:45:21.575Z,33.40
2019-04-07T15:47:53.830Z,33.40
2019-04-07T15:50:22.651Z,33.70
2019-04-07T15:52:52.706Z,33.90
2019-04-07T15:55:26.370Z,33.70
2019-04-07T15:57:57.097Z,33.70
2019-04-07T16:00:25.774Z,34.10
2019-04-07T16:02:55.496Z,34.60
2019-04-07T16:05:24.513Z,35.00
2019-04-07T16:07:55.425Z,35.70
2019-04-07T16:10:26.161Z,35.40
2019-04-07T16:12:59.019Z,34.90
2019-04-07T16:15:27.332Z,34.80
2019-04-07T16:17:56.907Z,34.50
2019-04-07T16:20:32.329Z,34.50
2019-04-07T16:22:59.617Z,34.50
2019-04-07T16:25:32.215Z,34.70
2019-04-07T16:28:03.508Z,34.70
2019-04-07T16:30:34.041Z,34.70
2019-04-07T16:33:05.581Z,34.80
2019-04-07T16:35:36.499Z,34.70
2019-04-07T16:38:05.990Z,34.90
2019-04-07T16:40:35.934Z,35.00
2019-04-07T16:43:13.371Z,35.10
2019-04-07T16:45:36.719Z,35.20
2019-04-07T16:48:08.058Z,35.40
2019-04-07T16:50:39.858Z,35.80
2019-04-07T16:53:09.500Z,36.60
2019-04-07T16:55:41.575Z,36.60
2019-04-07T16:58:14.257Z,36.50
2019-04-07T17:00:43.993Z,36.60
2019-04-07T17:03:15.309Z,36.40
2019-04-07T17:05:46.317Z,36.60
2019-04-07T17:08:19.356Z,37.10
2019-04-07T17:10:48.630Z,37.40
2019-04-07T17:13:24.797Z,37.50
2019-04-07T17:15:51.577Z,37.60
2019-04-07T17:18:38.876Z,38.10
2019-04-07T17:21:15.092Z,38.20
2019-04-07T17:23:44.265Z,38.80
2019-04-07T17:26:13.904Z,38.70
2019-04-07T17:28:45.168Z,39.10
2019-04-07T17:31:16.287Z,39.70
2019-04-07T17:33:46.933Z,40.00
2019-04-07T17:36:20.924Z,39.90
2019-04-07T17:39:09.616Z,39.80
2019-04-07T17:41:39.270Z,40.30
2019-04-07T17:44:18.030Z,40.50
2019-04-07T17:46:57.899Z,40.70
2019-04-07T17:49:34.658Z,41.20
2019-04-07T17:52:22.830Z,41.40
2019-04-07T17:55:10.617Z,41.20
2019-04-07T17:57:50.780Z,41.60
2019-04-07T18:00:30.162Z,42.10
2019-04-07T18:03:06.101Z,42.60
2019-04-07T18:05:40.678Z,42.90
2019-04-07T18:08:25.134Z,43.10
2019-04-07T18:11:02.351Z,43.20
2019-04-07T18:13:49.088Z,43.50
2019-04-07T18:16:30.672Z,43.40
2019-04-07T18:19:04.758Z,43.80
2019-04-07T18:21:52.411Z,43.90
2019-04-07T18:24:31.703Z,45.20
2019-04-07T18:27:03.133Z,44.70
2019-04-07T18:29:38.387Z,44.00
2019-04-07T18:32:13.185Z,44.40
2019-04-07T18:34:45.036Z,45.70
2019-04-07T18:37:18.851Z,45.80
2019-04-07T18:40:00.249Z,46.60
2019-04-07T18:42:45.560Z,46.90
2019-04-07T18:45:19.691Z,47.50
2019-04-07T18:47:58.071Z,47.60
2019-04-07T18:50:28.964Z,47.80
2019-04-07T18:53:12.445Z,48.20
2019-04-07T18:56:00.108Z,48.00
2019-04-07T18:58:36.812Z,48.00
2019-04-07T19:01:24.406Z,48.60
2019-04-07T19:04:02.479Z,49.30
2019-04-07T19:06:36.938Z,49.50
2019-04-07T19:09:14.194Z,49.70
2019-04-07T19:12:02.806Z,50.00
2019-04-07T19:14:40.226Z,49.70
2019-04-07T19:16:59.704Z,50.30
2019-04-07T19:19:49.237Z,51.30
2019-04-07T19:22:23.222Z,50.80
2019-04-07T19:24:54.736Z,50.80
2019-04-07T19:27:31.011Z,51.20
2019-04-07T19:30:07.353Z,51.20
2019-04-07T19:32:38.887Z,51.30
2019-04-07T19:35:11.516Z,51.40
2019-04-07T19:38:01.149Z,52.10
2019-04-07T19:40:51.068Z,52.10
2019-04-07T19:43:25.345Z,52.00
2019-04-07T19:46:09.240Z,52.80
2019-04-07T19:48:43.106Z,52.50
2019-04-07T19:51:22.488Z,52.50
2019-04-07T19:54:04.408Z,52.70
2019-04-07T19:56:35.792Z,53.00
2019-04-07T19:59:12.837Z,53.00
2019-04-07T20:02:02.248Z,53.00
2019-04-07T20:04:34.391Z,53.10
2019-04-07T20:07:13.733Z,53.60
2019-04-07T20:09:50.956Z,53.90
2019-04-07T20:12:22.354Z,53.90
2019-04-07T20:15:06.942Z,53.70
2019-04-07T20:17:43.993Z,54.20
2019-04-07T20:20:21.754Z,54.60
2019-04-07T20:23:02.196Z,54.70
2019-04-07T20:25:46.227Z,55.20
2019-04-07T20:28:15.324Z,55.00
2019-04-07T20:30:51.164Z,55.00
2019-04-07T20:33:38.646Z,55.20
2019-04-07T20:36:23.508Z,55.40
2019-04-07T20:38:52.090Z,54.90
2019-04-07T20:41:29.464Z,55.20
2019-04-07T20:44:18.868Z,55.10
2019-04-07T20:47:07.808Z,54.70
2019-04-07T20:49:47.774Z,54.60
2019-04-07T20:52:20.106Z,54.70
2019-04-07T20:54:51.768Z,54.80
2019-04-07T20:57:39.095Z,54.50
2019-04-07T21:00:26.512Z,54.40
2019-04-07T21:03:17.168Z,54.30
2019-04-07T21:05:44.168Z,54.50
2019-04-07T21:08:24.099Z,54.90
2019-04-07T21:11:01.496Z,55.40
2019-04-07T21:13:50.392Z,55.30
2019-04-07T21:16:33.847Z,55.70
2019-04-07T21:19:07.756Z,56.00
2019-04-07T21:21:49.890Z,56.30
2019-04-07T21:24:27.210Z,56.70
2019-04-07T21:27:16.377Z,56.90
2019-04-07T21:30:00.700Z,57.30
2019-04-07T21:32:31.591Z,57.60
2019-04-07T21:35:09.265Z,58.00
2019-04-07T21:37:40.870Z,58.50
2019-04-07T21:40:18.703Z,59.00
2019-04-07T21:43:02.661Z,59.20
2019-04-07T21:45:52.815Z,59.30
2019-04-07T21:48:30.648Z,59.60
2019-04-07T21:51:08.606Z,59.90
2019-04-07T21:54:02.224Z,60.10
2019-04-07T21:56:48.867Z,60.30
2019-04-07T21:59:26.617Z,60.50
2019-04-07T22:02:11.838Z,61.00
2019-04-07T22:04:56.647Z,61.00
2019-04-07T22:07:27.660Z,61.00
2019-04-07T22:10:03.178Z,61.00
2019-04-07T22:12:33.919Z,61.40
2019-04-07T22:15:04.499Z,61.40
2019-04-07T22:17:36.636Z,61.30
2019-04-07T22:20:08.355Z,61.30
2019-04-07T22:22:38.892Z,61.30
2019-04-07T22:25:09.760Z,61.40
2019-04-07T22:27:39.790Z,61.50
2019-04-07T22:30:11.728Z,61.50
2019-04-07T22:32:41.144Z,61.60
2019-04-07T22:35:11.432Z,61.80
2019-04-07T22:37:41.819Z,61.80
2019-04-07T22:40:15.155Z,62.20
2019-04-07T22:42:47.447Z,62.10
2019-04-07T22:45:16.642Z,62.10
2019-04-07T22:47:46.655Z,62.10
2019-04-07T22:50:17.026Z,62.40
2019-04-07T22:52:49.060Z,62.50
2019-04-07T22:55:18.395Z,63.00
2019-04-07T22:57:49.509Z,62.40
2019-04-07T23:00:21.314Z,62.50
2019-04-07T23:02:50.910Z,62.60
2019-04-07T23:05:21.024Z,62.60
2019-04-07T23:07:50.442Z,62.90
2019-04-07T23:10:20.066Z,62.70
2019-04-07T23:12:50.980Z,62.70
2019-04-07T23:15:20.769Z,63.00
2019-04-07T23:17:52.260Z,62.90
2019-04-07T23:20:23.562Z,62.90
2019-04-07T23:22:53.008Z,63.10
2019-04-07T23:25:23.013Z,63.00
2019-04-07T23:27:52.870Z,62.90
2019-04-07T23:30:24.368Z,63.20
2019-04-07T23:32:57.829Z,63.30
2019-04-07T23:35:28.762Z,63.20
2019-04-07T23:37:59.432Z,63.20
2019-04-07T23:40:29.931Z,63.50
2019-04-07T23:42:58.820Z,63.40
2019-04-07T23:45:29.031Z,63.60
2019-04-07T23:47:59.935Z,63.80
2019-04-07T23:50:30.384Z,63.80
2019-04-07T23:53:03.548Z,64.20
2019-04-07T23:55:32.841Z,64.20
2019-04-07T23:58:02.792Z,64.30
